4XCWE LLHA-LLHA
Flight info
| Callsign | 4XCWE |
|---|---|
| Flight time | 0h 8m |
| Altitude | 800 |
| Route | CVFR |
| Aircraft | C152/L-VD/A |
Departure
| Time | 2026-04-25 19:17 |
|---|---|
| Airport | Uri Michaeli Haifa International Airport (LLHA) |
Arrival
| Time | 2026-04-25 19:25 |
|---|---|
| Airport | Uri Michaeli Haifa International Airport (LLHA) |
| Time | Latitude | Longitude | Altitude | Speed | Heading |
|---|---|---|---|---|---|
| 2026-04-25 19:09 | 32.81155 | 35.04175 | 19 ft | 0 kts | 140° |
| 2026-04-25 19:12 | 32.81153 | 35.04177 | 19 ft | 5 kts | 138° |
| 2026-04-25 19:12 | 32.81155 | 35.04231 | 20 ft | 2 kts | 69° |
| 2026-04-25 19:12 | 32.81167 | 35.04280 | 21 ft | 11 kts | 84° |
| 2026-04-25 19:13 | 32.81113 | 35.04337 | 20 ft | 18 kts | 160° |
| 2026-04-25 19:13 | 32.80975 | 35.04390 | 22 ft | 20 kts | 171° |
| 2026-04-25 19:13 | 32.80839 | 35.04446 | 21 ft | 27 kts | 161° |
| 2026-04-25 19:13 | 32.80681 | 35.04511 | 20 ft | 21 kts | 159° |
| 2026-04-25 19:14 | 32.80600 | 35.04564 | 18 ft | 7 kts | 53° |
| 2026-04-25 19:14 | 32.80608 | 35.04565 | 19 ft | 4 kts | 318° |
| 2026-04-25 19:14 | 32.80618 | 35.04549 | 19 ft | 0 kts | 340° |
| 2026-04-25 19:15 | 32.80749 | 35.04492 | 20 ft | 47 kts | 341° |
| 2026-04-25 19:15 | 32.81183 | 35.04302 | 22 ft | 82 kts | 340° |
| 2026-04-25 19:15 | 32.81547 | 35.04148 | 231 ft | 65 kts | 340° |
| 2026-04-25 19:15 | 32.82002 | 35.03985 | 343 ft | 73 kts | 343° |
| 2026-04-25 19:16 | 32.82494 | 35.03935 | 451 ft | 77 kts | 22° |
| 2026-04-25 19:16 | 32.82850 | 35.04487 | 460 ft | 91 kts | 66° |
| 2026-04-25 19:16 | 32.82639 | 35.05104 | 551 ft | 90 kts | 143° |
| 2026-04-25 19:16 | 32.82106 | 35.05557 | 617 ft | 91 kts | 144° |
| 2026-04-25 19:17 | 32.81556 | 35.05945 | 693 ft | 92 kts | 157° |
| 2026-04-25 19:17 | 32.80963 | 35.06168 | 804 ft | 91 kts | 164° |
| 2026-04-25 19:17 | 32.80381 | 35.06405 | 793 ft | 93 kts | 169° |
| 2026-04-25 19:17 | 32.79779 | 35.06681 | 860 ft | 93 kts | 141° |
| 2026-04-25 19:18 | 32.79350 | 35.07218 | 946 ft | 90 kts | 137° |
| 2026-04-25 19:18 | 32.78763 | 35.07223 | 963 ft | 97 kts | 221° |
| 2026-04-25 19:18 | 32.78386 | 35.06571 | 850 ft | 95 kts | 242° |
| 2026-04-25 19:18 | 32.78176 | 35.05819 | 748 ft | 97 kts | 284° |
| 2026-04-25 19:19 | 32.78663 | 35.05333 | 648 ft | 96 kts | 332° |
| 2026-04-25 19:19 | 32.79254 | 35.05041 | 543 ft | 75 kts | 345° |
| 2026-04-25 19:19 | 32.79714 | 35.04919 | 376 ft | 66 kts | 342° |
| 2026-04-25 19:19 | 32.79856 | 35.04870 | 320 ft | 66 kts | 341° |
| 2026-04-25 19:20 | 32.80596 | 35.04558 | 35 ft | 69 kts | 340° |
| 2026-04-25 19:20 | 32.81010 | 35.04377 | 30 ft | 72 kts | 338° |
| 2026-04-25 19:20 | 32.81485 | 35.04203 | 209 ft | 72 kts | 344° |
| 2026-04-25 19:20 | 32.81968 | 35.04036 | 349 ft | 72 kts | 343° |
| 2026-04-25 19:21 | 32.82452 | 35.04010 | 440 ft | 79 kts | 31° |
| 2026-04-25 19:21 | 32.82470 | 35.05147 | 547 ft | 93 kts | 152° |
| 2026-04-25 19:21 | 32.81865 | 35.05476 | 557 ft | 99 kts | 162° |
| 2026-04-25 19:22 | 32.81264 | 35.05672 | 787 ft | 80 kts | 165° |
| 2026-04-25 19:22 | 32.80709 | 35.05833 | 909 ft | 84 kts | 167° |
| 2026-04-25 19:22 | 32.79702 | 35.06652 | 893 ft | 104 kts | 131° |
| 2026-04-25 19:23 | 32.79157 | 35.07233 | 894 ft | 101 kts | 157° |
| 2026-04-25 19:23 | 32.78171 | 35.06226 | 772 ft | 104 kts | 245° |
| 2026-04-25 19:23 | 32.78137 | 35.05692 | 753 ft | 98 kts | 299° |
| 2026-04-25 19:24 | 32.78713 | 35.05270 | 642 ft | 101 kts | 338° |
| 2026-04-25 19:24 | 32.79522 | 35.04985 | 532 ft | 72 kts | 342° |
| 2026-04-25 19:24 | 32.80309 | 35.04675 | 160 ft | 74 kts | 340° |
| 2026-04-25 19:25 | 32.81015 | 35.04374 | 21 ft | 41 kts | 339° |
| 2026-04-25 19:25 | 32.81161 | 35.04296 | 21 ft | 11 kts | 298° |
| 2026-04-25 19:25 | 32.81161 | 35.04211 | 20 ft | 10 kts | 283° |